Time;durP1;ratioP1;P1;durP2;ratioP2;P2;SDS_P1;SDS_P2;PMS_P1;PMS_P2;Temp;Humidity;BMP_temperature;BMP_pressure;BME280_temperature;BME280_humidity;BME280_pressure;Samples;Min_cycle;Max_cycle;Signal;HPM_P1;HPM_P2
2022/12/10 00:01:32;;;;;;;15.45;10.73;;;;;;;;;;5074609;28;20505;-81
2022/12/10 00:03:57;;;;;;;16.27;10.15;;;;;;;;;;5074836;28;20032;-80
2022/12/10 00:06:26;;;;;;;15.50;11.13;;;;;;;;;;5074813;28;20356;-80
2022/12/10 00:08:51;;;;;;;15.77;11.27;;;;;;;;;;5076165;28;20025;-81
2022/12/10 00:11:18;;;;;;;17.70;10.68;;;;;;;;;;5074725;28;20352;-80
2022/12/10 00:13:45;;;;;;;14.63;10.85;;;;;;;;;;5075955;28;20116;-79
2022/12/10 00:16:13;;;;;;;16.17;10.65;;;;;;;;;;5074475;28;20028;-81
2022/12/10 00:18:39;;;;;;;17.08;10.68;;;;;;;;;;5076328;28;20501;-81
2022/12/10 00:21:16;;;;;;;16.55;10.60;;;;;;;;;;5094458;28;20126;-81
2022/12/10 00:23:41;;;;;;;14.05;10.60;;;;;;;;;;5094459;28;20016;-80
2022/12/10 00:26:28;;;;;;;14.70;10.65;;;;;;;;;;5077381;28;20532;-80
2022/12/10 00:28:55;;;;;;;16.02;11.10;;;;;;;;;;5077299;28;20046;-80
2022/12/10 00:31:26;;;;;;;15.10;10.52;;;;;;;;;;5077357;28;20024;-81
2022/12/10 00:33:56;;;;;;;15.50;10.30;;;;;;;;;;5077188;28;20044;-81
2022/12/10 00:36:25;;;;;;;15.15;10.68;;;;;;;;;;5077142;28;20054;-80
2022/12/10 00:38:50;;;;;;;13.98;10.40;;;;;;;;;;5094128;28;20063;-80
2022/12/10 00:41:16;;;;;;;17.90;10.90;;;;;;;;;;5094680;28;20055;-81
2022/12/10 00:43:42;;;;;;;14.88;10.50;;;;;;;;;;5094349;28;20027;-80
2022/12/10 00:46:08;;;;;;;17.45;10.90;;;;;;;;;;5060321;28;20067;-81
2022/12/10 00:48:33;;;;;;;13.02;10.23;;;;;;;;;;5077004;28;20028;-80
2022/12/10 00:50:59;;;;;;;15.65;10.30;;;;;;;;;;5095554;28;20067;-80
2022/12/10 00:53:25;;;;;;;14.48;9.93;;;;;;;;;;5076826;28;20448;-80
2022/12/10 00:55:51;;;;;;;14.23;10.18;;;;;;;;;;5094861;28;20035;-80
2022/12/10 00:58:16;;;;;;;15.32;10.18;;;;;;;;;;5095051;28;20394;-80
2022/12/10 01:00:42;;;;;;;15.82;10.73;;;;;;;;;;5094772;28;20031;-80
2022/12/10 01:03:07;;;;;;;14.65;9.95;;;;;;;;;;5095037;28;20031;-80
2022/12/10 01:05:32;;;;;;;15.35;10.10;;;;;;;;;;5094743;28;20025;-80
2022/12/10 01:07:58;;;;;;;14.98;9.90;;;;;;;;;;5095188;28;20467;-80
2022/12/10 01:10:23;;;;;;;13.77;10.38;;;;;;;;;;5059882;28;20371;-80
2022/12/10 01:12:48;;;;;;;15.40;10.43;;;;;;;;;;5093761;28;20070;-81
2022/12/10 01:15:14;;;;;;;14.35;10.05;;;;;;;;;;5094803;28;20024;-80
2022/12/10 01:17:39;;;;;;;14.02;9.43;;;;;;;;;;5093310;28;20066;-80
2022/12/10 01:20:05;;;;;;;14.50;9.98;;;;;;;;;;5094336;28;20058;-80
2022/12/10 01:22:31;;;;;;;14.35;10.05;;;;;;;;;;5076365;28;20501;-80
2022/12/10 01:24:56;;;;;;;14.27;10.20;;;;;;;;;;5094382;28;20032;-80
2022/12/10 01:27:21;;;;;;;15.48;10.27;;;;;;;;;;5093416;28;20031;-80
2022/12/10 01:29:47;;;;;;;15.90;10.60;;;;;;;;;;5093449;28;20036;-80
2022/12/10 01:32:12;;;;;;;13.70;9.57;;;;;;;;;;5094262;28;20394;-81
2022/12/10 01:34:37;;;;;;;17.88;10.60;;;;;;;;;;5075982;28;20059;-80
2022/12/10 01:37:03;;;;;;;12.82;9.75;;;;;;;;;;5075963;28;20036;-81
2022/12/10 01:39:28;;;;;;;14.52;9.88;;;;;;;;;;5076012;28;20090;-80
2022/12/10 01:41:56;;;;;;;13.82;9.93;;;;;;;;;;5076166;28;20028;-81
2022/12/10 01:44:21;;;;;;;14.07;10.23;;;;;;;;;;5076229;28;20024;-80
2022/12/10 01:46:48;;;;;;;15.00;10.18;;;;;;;;;;5094016;28;20390;-80
2022/12/10 01:49:17;;;;;;;14.90;10.45;;;;;;;;;;5092733;28;20028;-81
2022/12/10 01:51:44;;;;;;;17.23;10.07;;;;;;;;;;5093240;28;20070;-81
2022/12/10 01:54:21;;;;;;;14.68;9.98;;;;;;;;;;5075517;28;20449;-80
2022/12/10 01:56:51;;;;;;;15.55;9.95;;;;;;;;;;5076013;28;20036;-81
2022/12/10 01:59:16;;;;;;;13.27;9.50;;;;;;;;;;5075728;28;20028;-80
2022/12/10 02:01:54;;;;;;;15.10;10.35;;;;;;;;;;5075624;28;20466;-81
2022/12/10 02:04:29;;;;;;;13.90;10.00;;;;;;;;;;5075555;28;20127;-80
2022/12/10 02:06:57;;;;;;;12.82;9.75;;;;;;;;;;5075505;28;20478;-80
2022/12/10 02:09:49;;;;;;;15.52;10.52;;;;;;;;;;5075421;28;20024;-80
2022/12/10 02:12:25;;;;;;;13.02;9.70;;;;;;;;;;5090374;28;20039;-80
2022/12/10 02:15:06;;;;;;;15.05;10.38;;;;;;;;;;5075625;28;20094;-80
2022/12/10 02:17:37;;;;;;;13.65;10.25;;;;;;;;;;5075311;28;20027;-80
2022/12/10 02:20:13;;;;;;;16.23;10.07;;;;;;;;;;5075269;28;20414;-81
2022/12/10 02:22:59;;;;;;;15.32;10.82;;;;;;;;;;5092258;28;20474;-81
2022/12/10 02:25:49;;;;;;;16.85;10.52;;;;;;;;;;5092174;28;20031;-81
2022/12/10 02:28:55;;;;;;;14.07;10.02;;;;;;;;;;5092224;28;20015;-81
2022/12/10 02:31:26;;;;;;;13.73;10.20;;;;;;;;;;5090130;28;20402;-81
2022/12/10 02:33:55;;;;;;;19.85;11.32;;;;;;;;;;5092023;28;20024;-81
2022/12/10 02:36:22;;;;;;;14.07;10.30;;;;;;;;;;5092275;28;20077;-81
2022/12/10 02:38:48;;;;;;;17.13;10.70;;;;;;;;;;5092073;28;20020;-81
2022/12/10 02:41:18;;;;;;;15.68;10.60;;;;;;;;;;5075414;28;20115;-81
2022/12/10 02:43:45;;;;;;;15.15;10.45;;;;;;;;;;5058881;28;20031;-81
2022/12/10 02:46:11;;;;;;;18.10;10.88;;;;;;;;;;5091961;28;20028;-80
2022/12/10 02:48:37;;;;;;;15.07;10.60;;;;;;;;;;5092538;28;20028;-81
2022/12/10 02:51:02;;;;;;;15.00;10.90;;;;;;;;;;5075367;28;20036;-80
2022/12/10 02:53:27;;;;;;;13.93;10.18;;;;;;;;;;5091925;28;20035;-80
2022/12/10 02:56:11;;;;;;;18.08;12.00;;;;;;;;;;5092100;28;20383;-80
2022/12/10 02:58:46;;;;;;;17.90;11.00;;;;;;;;;;5093037;28;20055;-81
2022/12/10 03:01:28;;;;;;;17.13;11.30;;;;;;;;;;5093007;28;20484;-80
2022/12/10 03:04:00;;;;;;;16.42;11.43;;;;;;;;;;5076648;28;20111;-81
2022/12/10 03:06:52;;;;;;;16.98;11.25;;;;;;;;;;5095930;28;20032;-80
2022/12/10 03:09:39;;;;;;;16.20;10.95;;;;;;;;;;5076169;28;20217;-81
2022/12/10 03:12:45;;;;;;;16.30;11.23;;;;;;;;;;5062244;28;20043;-81
2022/12/10 03:15:11;;;;;;;17.52;11.73;;;;;;;;;;5018041;28;20029;-81
2022/12/10 03:17:38;;;;;;;17.35;11.13;;;;;;;;;;5018352;28;20125;-81
2022/12/10 03:20:08;;;;;;;17.30;11.60;;;;;;;;;;5017765;28;20081;-81
2022/12/10 03:22:33;;;;;;;16.40;11.05;;;;;;;;;;5018191;28;20135;-80
2022/12/10 03:24:59;;;;;;;17.42;12.02;;;;;;;;;;5018242;28;20108;-80
2022/12/10 03:27:25;;;;;;;18.13;12.38;;;;;;;;;;5018264;28;20029;-80
2022/12/10 03:29:53;;;;;;;18.10;11.95;;;;;;;;;;5018329;28;20048;-80
2022/12/10 03:32:21;;;;;;;16.02;11.40;;;;;;;;;;5017703;28;20124;-80
2022/12/10 03:34:47;;;;;;;16.92;11.65;;;;;;;;;;5017688;28;20032;-80
2022/12/10 03:37:13;;;;;;;16.00;11.02;;;;;;;;;;5018329;28;20449;-79
2022/12/10 03:39:40;;;;;;;18.52;12.60;;;;;;;;;;5034500;28;20172;-81
2022/12/10 03:42:06;;;;;;;18.15;12.10;;;;;;;;;;5017651;28;20412;-79
2022/12/10 03:44:36;;;;;;;17.00;11.70;;;;;;;;;;5001282;28;20029;-78
2022/12/10 03:47:03;;;;;;;15.95;10.80;;;;;;;;;;5017566;28;20512;-80
2022/12/10 03:49:29;;;;;;;18.38;11.95;;;;;;;;;;5045258;28;20040;-81
2022/12/10 03:51:55;;;;;;;15.77;11.55;;;;;;;;;;5075979;28;20025;-80
2022/12/10 03:54:20;;;;;;;16.33;11.63;;;;;;;;;;5076387;28;20471;-80
2022/12/10 03:56:46;;;;;;;16.63;11.77;;;;;;;;;;5057940;28;20039;-80
2022/12/10 03:59:11;;;;;;;17.10;11.80;;;;;;;;;;5041205;28;20078;-80
2022/12/10 04:01:37;;;;;;;16.52;11.73;;;;;;;;;;5075791;28;20467;-80
2022/12/10 04:04:03;;;;;;;17.40;11.95;;;;;;;;;;5075988;28;20037;-81
2022/12/10 04:06:29;;;;;;;18.50;12.32;;;;;;;;;;5058084;28;20046;-80
2022/12/10 04:08:54;;;;;;;17.73;12.10;;;;;;;;;;5041029;28;20368;-80
2022/12/10 04:11:19;;;;;;;16.08;11.77;;;;;;;;;;5041496;28;20029;-80
2022/12/10 04:16:30;;;;;;;16.77;11.48;;;;;;;;;;5074824;28;20059;-80
2022/12/10 04:19:09;;;;;;;18.88;12.02;;;;;;;;;;5061328;28;20151;-80
2022/12/10 04:27:22;;;;;;;19.90;12.05;;;;;;;;;;5094825;28;20046;-80
2022/12/10 04:29:48;;;;;;;16.52;11.27;;;;;;;;;;5094332;28;20063;-80
2022/12/10 04:32:14;;;;;;;17.10;11.93;;;;;;;;;;5094249;28;20520;-80
2022/12/10 04:34:39;;;;;;;18.00;11.90;;;;;;;;;;5077063;28;20089;-80
2022/12/10 04:37:05;;;;;;;18.05;11.77;;;;;;;;;;5077255;28;20070;-80
2022/12/10 04:39:30;;;;;;;16.30;11.95;;;;;;;;;;5094268;28;20470;-80
2022/12/10 04:41:56;;;;;;;17.30;11.20;;;;;;;;;;5093985;28;20024;-80
2022/12/10 04:44:22;;;;;;;17.23;12.20;;;;;;;;;;5095203;28;20030;-80
2022/12/10 04:46:48;;;;;;;15.32;11.05;;;;;;;;;;5095161;28;20024;-80
2022/12/10 04:49:13;;;;;;;17.30;11.63;;;;;;;;;;5076940;28;20481;-80
2022/12/10 04:51:39;;;;;;;15.95;11.10;;;;;;;;;;5075266;28;20040;-80
2022/12/10 04:54:05;;;;;;;15.52;11.07;;;;;;;;;;5059780;28;20023;-82
2022/12/10 04:56:31;;;;;;;17.17;11.45;;;;;;;;;;5076678;28;20020;-82
2022/12/10 04:58:57;;;;;;;19.17;11.20;;;;;;;;;;5043358;28;20032;-82
2022/12/10 05:01:23;;;;;;;19.45;11.98;;;;;;;;;;5076450;28;20398;-82
2022/12/10 05:03:48;;;;;;;17.25;11.57;;;;;;;;;;5076713;28;20039;-82
2022/12/10 05:06:16;;;;;;;19.38;11.95;;;;;;;;;;5043552;28;20032;-81
2022/12/10 05:08:43;;;;;;;17.23;11.73;;;;;;;;;;5060025;28;20024;-83
2022/12/10 05:11:19;;;;;;;14.32;10.60;;;;;;;;;;5043316;28;20398;-82
2022/12/10 05:13:45;;;;;;;17.33;10.93;;;;;;;;;;5059792;28;20028;-81
2022/12/10 05:16:13;;;;;;;20.58;11.50;;;;;;;;;;5076514;28;20479;-82
2022/12/10 05:18:39;;;;;;;19.42;11.77;;;;;;;;;;5094498;28;20453;-81
2022/12/10 05:21:06;;;;;;;15.52;10.75;;;;;;;;;;5076362;28;20048;-81
2022/12/10 05:23:33;;;;;;;15.57;11.15;;;;;;;;;;5094911;28;20359;-82
2022/12/10 05:26:07;;;;;;;20.73;11.65;;;;;;;;;;5059727;28;20019;-82
2022/12/10 05:28:35;;;;;;;16.90;11.23;;;;;;;;;;5077039;28;20024;-81
2022/12/10 05:31:01;;;;;;;18.20;10.93;;;;;;;;;;5076670;28;20104;-82
2022/12/10 05:33:27;;;;;;;14.45;10.68;;;;;;;;;;5076344;28;20051;-82
2022/12/10 05:35:57;;;;;;;15.60;10.65;;;;;;;;;;5076237;28;20020;-82
2022/12/10 05:38:23;;;;;;;15.63;10.73;;;;;;;;;;5076340;28;20419;-82
2022/12/10 05:40:48;;;;;;;19.10;11.68;;;;;;;;;;5076213;28;20120;-82
2022/12/10 05:43:14;;;;;;;14.60;10.23;;;;;;;;;;5059751;28;20067;-81
2022/12/10 05:45:39;;;;;;;15.50;10.35;;;;;;;;;;5076227;28;20024;-82
2022/12/10 05:48:05;;;;;;;22.88;9.93;;;;;;;;;;5076266;28;20027;-81
2022/12/10 05:50:31;;;;;;;13.73;10.07;;;;;;;;;;5059387;28;20452;-81
2022/12/10 05:52:56;;;;;;;19.92;10.25;;;;;;;;;;5076287;28;20035;-80
2022/12/10 05:55:22;;;;;;;15.07;10.10;;;;;;;;;;5093973;28;20063;-80
2022/12/10 05:57:47;;;;;;;15.98;10.25;;;;;;;;;;5094133;28;20127;-80
2022/12/10 06:00:13;;;;;;;16.88;10.30;;;;;;;;;;5093973;28;20035;-79
2022/12/10 06:02:38;;;;;;;17.55;10.20;;;;;;;;;;5075822;28;20081;-80
2022/12/10 06:05:04;;;;;;;19.95;9.40;;;;;;;;;;5076114;28;20099;-79
2022/12/10 06:07:30;;;;;;;18.02;9.40;;;;;;;;;;5076133;28;20043;-80
2022/12/10 06:09:55;;;;;;;19.65;9.75;;;;;;;;;;5075871;28;20027;-79
2022/12/10 06:12:21;;;;;;;19.55;9.45;;;;;;;;;;5094393;28;20044;-79
2022/12/10 06:14:46;;;;;;;15.13;9.77;;;;;;;;;;5075591;28;20024;-79
2022/12/10 06:17:12;;;;;;;23.42;9.88;;;;;;;;;;5075629;28;20501;-79
2022/12/10 06:19:37;;;;;;;15.15;10.20;;;;;;;;;;5075915;28;20143;-79
2022/12/10 06:22:02;;;;;;;14.90;9.77;;;;;;;;;;5093727;28;20024;-80
2022/12/10 06:24:28;;;;;;;13.93;9.70;;;;;;;;;;5093593;28;20505;-78
2022/12/10 06:26:54;;;;;;;18.77;9.55;;;;;;;;;;5075553;28;20169;-81
2022/12/10 06:29:19;;;;;;;13.63;9.52;;;;;;;;;;5075756;28;20454;-79
2022/12/10 06:31:45;;;;;;;16.70;9.70;;;;;;;;;;5093485;28;20036;-81
2022/12/10 06:34:10;;;;;;;14.98;10.10;;;;;;;;;;5093548;28;20055;-82
2022/12/10 06:36:35;;;;;;;19.17;10.15;;;;;;;;;;5076134;28;20110;-82
2022/12/10 06:39:01;;;;;;;18.75;10.77;;;;;;;;;;5074927;28;20036;-82
2022/12/10 06:41:26;;;;;;;17.05;10.68;;;;;;;;;;5075473;28;20024;-83
2022/12/10 06:43:52;;;;;;;17.05;9.85;;;;;;;;;;5058837;28;20470;-83
2022/12/10 06:46:19;;;;;;;18.85;9.38;;;;;;;;;;5075334;28;20016;-82
2022/12/10 06:48:45;;;;;;;17.60;10.38;;;;;;;;;;5075404;28;20028;-82
2022/12/10 06:51:11;;;;;;;15.57;10.13;;;;;;;;;;5093594;28;20089;-82
2022/12/10 06:53:38;;;;;;;20.80;10.60;;;;;;;;;;5093817;28;20024;-85
2022/12/10 06:56:05;;;;;;;17.42;10.95;;;;;;;;;;5058440;28;20459;-82
2022/12/10 06:58:32;;;;;;;20.90;11.20;;;;;;;;;;5075159;28;20031;-83
2022/12/10 07:01:06;;;;;;;18.00;10.98;;;;;;;;;;5075500;28;20020;-82
2022/12/10 07:03:31;;;;;;;16.27;10.05;;;;;;;;;;5093214;28;20032;-81
2022/12/10 07:05:58;;;;;;;16.50;10.80;;;;;;;;;;5093846;28;20028;-81
2022/12/10 07:08:24;;;;;;;22.65;10.98;;;;;;;;;;5075814;28;20028;-81
2022/12/10 07:10:49;;;;;;;18.42;11.30;;;;;;;;;;5041750;28;20031;-83
2022/12/10 07:13:14;;;;;;;18.67;11.60;;;;;;;;;;5058524;28;20036;-82
2022/12/10 07:15:40;;;;;;;17.05;11.55;;;;;;;;;;5074850;28;20036;-81
2022/12/10 07:18:05;;;;;;;14.80;10.63;;;;;;;;;;5093107;28;20020;-82
2022/12/10 07:20:31;;;;;;;14.50;10.25;;;;;;;;;;5074513;28;20052;-82
2022/12/10 07:22:56;;;;;;;19.00;11.77;;;;;;;;;;5075027;28;20502;-83
2022/12/10 07:25:21;;;;;;;15.88;10.82;;;;;;;;;;5074730;28;20024;-83
2022/12/10 07:27:47;;;;;;;15.50;10.52;;;;;;;;;;5093111;28;20036;-80
2022/12/10 07:30:12;;;;;;;18.92;11.30;;;;;;;;;;5057967;28;20035;-80
2022/12/10 07:32:38;;;;;;;20.40;10.82;;;;;;;;;;5092729;28;20056;-81
2022/12/10 07:35:03;;;;;;;26.13;11.85;;;;;;;;;;5074596;28;20040;-79
2022/12/10 07:37:29;;;;;;;25.35;12.88;;;;;;;;;;5057921;28;20043;-80
2022/12/10 07:39:54;;;;;;;26.33;11.60;;;;;;;;;;5092819;28;20032;-81
2022/12/10 07:42:19;;;;;;;22.48;11.63;;;;;;;;;;5058192;28;20042;-81
2022/12/10 07:44:45;;;;;;;18.77;11.38;;;;;;;;;;5091806;28;20084;-81
2022/12/10 07:47:10;;;;;;;18.88;11.82;;;;;;;;;;5041570;28;20031;-83
2022/12/10 07:49:36;;;;;;;18.85;11.80;;;;;;;;;;5074959;28;20024;-81
2022/12/10 07:52:01;;;;;;;21.73;11.00;;;;;;;;;;5077958;28;20024;-81
2022/12/10 07:54:27;;;;;;;22.38;11.32;;;;;;;;;;5096722;28;20088;-82
2022/12/10 07:56:52;;;;;;;30.23;12.82;;;;;;;;;;5061864;28;20115;-81
2022/12/10 07:59:17;;;;;;;26.67;11.75;;;;;;;;;;5096936;28;20032;-81
2022/12/10 08:01:43;;;;;;;22.60;12.18;;;;;;;;;;5045709;28;20032;-81
2022/12/10 08:04:09;;;;;;;21.13;12.73;;;;;;;;;;5062613;28;20126;-81
2022/12/10 08:06:34;;;;;;;20.08;11.70;;;;;;;;;;5061699;28;20031;-83
2022/12/10 08:09:00;;;;;;;17.20;11.32;;;;;;;;;;5096358;28;20084;-83
2022/12/10 08:11:26;;;;;;;26.48;12.27;;;;;;;;;;5096004;28;20060;-82
2022/12/10 08:13:52;;;;;;;20.58;11.45;;;;;;;;;;5078648;28;20081;-81
2022/12/10 08:16:20;;;;;;;21.33;12.63;;;;;;;;;;5077979;28;20118;-81
2022/12/10 08:18:46;;;;;;;19.30;11.75;;;;;;;;;;5077903;28;20031;-82
2022/12/10 08:21:14;;;;;;;21.38;12.60;;;;;;;;;;5061053;28;20509;-84
2022/12/10 08:23:40;;;;;;;20.83;12.15;;;;;;;;;;5061056;28;20024;-83
2022/12/10 08:26:07;;;;;;;17.95;11.73;;;;;;;;;;5078279;28;20027;-84
2022/12/10 08:28:33;;;;;;;18.27;11.52;;;;;;;;;;5078142;28;20028;-83
2022/12/10 08:30:59;;;;;;;19.30;11.77;;;;;;;;;;5077586;28;20555;-80
2022/12/10 08:33:25;;;;;;;20.75;12.20;;;;;;;;;;5095818;28;20024;-80
2022/12/10 08:35:50;;;;;;;20.45;12.30;;;;;;;;;;5044221;28;20056;-80
2022/12/10 08:38:16;;;;;;;22.70;12.65;;;;;;;;;;5095523;28;20383;-80
2022/12/10 08:40:42;;;;;;;21.42;12.32;;;;;;;;;;5061903;28;20492;-80
2022/12/10 08:43:07;;;;;;;19.83;12.27;;;;;;;;;;5077914;28;20109;-81
2022/12/10 08:45:33;;;;;;;20.40;13.25;;;;;;;;;;5095946;28;20020;-83
2022/12/10 08:47:59;;;;;;;21.42;12.32;;;;;;;;;;5096759;28;20496;-79
2022/12/10 08:50:25;;;;;;;20.50;12.70;;;;;;;;;;5077559;28;20032;-80
2022/12/10 08:52:50;;;;;;;18.90;11.95;;;;;;;;;;5093972;28;20024;-83
2022/12/10 08:55:16;;;;;;;21.52;12.98;;;;;;;;;;5095093;28;20051;-80
2022/12/10 08:57:41;;;;;;;22.30;12.95;;;;;;;;;;5060259;28;20398;-82
2022/12/10 09:00:07;;;;;;;20.90;12.77;;;;;;;;;;5076975;28;20082;-81
2022/12/10 09:02:32;;;;;;;21.83;12.25;;;;;;;;;;5076573;28;20042;-81
2022/12/10 09:04:57;;;;;;;24.75;13.45;;;;;;;;;;5095333;28;20448;-81
2022/12/10 09:07:23;;;;;;;31.15;13.52;;;;;;;;;;5095613;28;20024;-79
2022/12/10 09:09:48;;;;;;;32.05;13.73;;;;;;;;;;5077005;28;20034;-79
2022/12/10 09:12:14;;;;;;;27.15;14.25;;;;;;;;;;5094874;28;20039;-81
2022/12/10 09:14:41;;;;;;;36.30;14.90;;;;;;;;;;5094684;28;20058;-81
2022/12/10 09:17:07;;;;;;;33.30;14.38;;;;;;;;;;5094644;28;20031;-81
2022/12/10 09:19:32;;;;;;;37.80;15.63;;;;;;;;;;5076369;28;20126;-81
2022/12/10 09:21:57;;;;;;;32.70;14.45;;;;;;;;;;5095025;28;20510;-82
2022/12/10 09:24:23;;;;;;;31.45;14.73;;;;;;;;;;5059795;28;20488;-82
2022/12/10 09:26:48;;;;;;;35.00;15.48;;;;;;;;;;5076399;28;20032;-81
2022/12/10 09:29:14;;;;;;;32.17;14.75;;;;;;;;;;5076464;28;20028;-82
2022/12/10 09:31:39;;;;;;;39.35;15.68;;;;;;;;;;5076403;28;20032;-80
2022/12/10 09:34:05;;;;;;;34.72;15.88;;;;;;;;;;5059876;28;20043;-79
2022/12/10 09:36:30;;;;;;;34.03;15.75;;;;;;;;;;5076374;28;20027;-82
2022/12/10 09:38:56;;;;;;;34.30;15.30;;;;;;;;;;5076161;28;20072;-80
2022/12/10 09:41:52;;;;;;;33.72;15.30;;;;;;;;;;5094198;28;20028;-80
2022/12/10 09:44:48;;;;;;;31.50;15.75;;;;;;;;;;5094297;28;20032;-80
2022/12/10 09:47:14;;;;;;;30.77;14.40;;;;;;;;;;5093960;28;20020;-81
2022/12/10 09:49:54;;;;;;;28.33;14.70;;;;;;;;;;5075891;28;20024;-82
2022/12/10 09:52:22;;;;;;;34.90;15.70;;;;;;;;;;5059128;28;20032;-81
2022/12/10 09:54:54;;;;;;;33.72;15.13;;;;;;;;;;5059098;28;20048;-80
2022/12/10 09:57:38;;;;;;;30.63;13.27;;;;;;;;;;5093846;28;20024;-80
2022/12/10 10:00:24;;;;;;;;;;;;;;;;;;5077054;28;20076;-78
2022/12/10 10:02:50;;;;;;;30.90;13.38;;;;;;;;;;5075310;28;19919;-79
2022/12/10 10:05:24;;;;;;;25.75;13.50;;;;;;;;;;5093803;28;20388;-80
2022/12/10 10:08:02;;;;;;;27.30;14.20;;;;;;;;;;5058935;28;20076;-80
2022/12/10 10:10:36;;;;;;;24.88;13.82;;;;;;;;;;5093652;28;20386;-80
2022/12/10 10:13:08;;;;;;;25.65;12.52;;;;;;;;;;5075024;28;20027;-80
2022/12/10 10:15:35;;;;;;;26.00;13.50;;;;;;;;;;5093918;28;20031;-80
2022/12/10 10:18:33;;;;;;;30.30;13.38;;;;;;;;;;5076095;28;20020;-80
2022/12/10 10:21:00;;;;;;;21.42;12.88;;;;;;;;;;5069727;28;20100;-80
2022/12/10 10:23:25;;;;;;;19.23;11.75;;;;;;;;;;5093617;28;20439;-82
2022/12/10 10:25:51;;;;;;;20.65;11.93;;;;;;;;;;5075623;28;20075;-80
2022/12/10 10:28:20;;;;;;;24.92;12.15;;;;;;;;;;5058845;28;20474;-80
2022/12/10 10:30:45;;;;;;;20.15;12.00;;;;;;;;;;5075693;28;20036;-80
2022/12/10 10:33:12;;;;;;;20.13;12.50;;;;;;;;;;5075795;28;20034;-80
2022/12/10 10:35:50;;;;;;;17.70;11.80;;;;;;;;;;5075178;28;20389;-80
2022/12/10 10:38:24;;;;;;;19.80;11.63;;;;;;;;;;5075947;28;20028;-80
2022/12/10 10:40:55;;;;;;;22.58;12.25;;;;;;;;;;5075574;28;20557;-79
2022/12/10 10:43:26;;;;;;;22.48;12.57;;;;;;;;;;5075984;28;20036;-80
2022/12/10 10:45:54;;;;;;;21.48;12.30;;;;;;;;;;5075695;28;20020;-80
2022/12/10 10:48:23;;;;;;;24.33;12.50;;;;;;;;;;5076602;28;20381;-80
2022/12/10 10:50:54;;;;;;;20.30;11.93;;;;;;;;;;5075627;28;20027;-81
2022/12/10 10:53:28;;;;;;;21.70;11.45;;;;;;;;;;5075367;28;20036;-80
2022/12/10 10:55:56;;;;;;;22.02;12.18;;;;;;;;;;5075612;28;20028;-80
2022/12/10 10:58:23;;;;;;;19.08;12.05;;;;;;;;;;5058878;28;20032;-80
2022/12/10 11:01:07;;;;;;;23.70;11.80;;;;;;;;;;5059249;28;20032;-81
2022/12/10 11:03:35;;;;;;;21.65;12.00;;;;;;;;;;5093547;28;20020;-79
2022/12/10 11:06:01;;;;;;;27.73;12.80;;;;;;;;;;5058383;28;20020;-81
2022/12/10 11:08:30;;;;;;;26.23;12.27;;;;;;;;;;5058449;28;20411;-80
2022/12/10 11:11:02;;;;;;;23.42;13.77;;;;;;;;;;5075382;28;20024;-79
2022/12/10 11:13:31;;;;;;;24.15;13.40;;;;;;;;;;5075812;28;20031;-79
2022/12/10 11:16:10;;;;;;;30.48;13.75;;;;;;;;;;5074992;28;20493;-81
2022/12/10 11:18:38;;;;;;;29.85;12.70;;;;;;;;;;5075058;28;20477;-80
2022/12/10 11:21:12;;;;;;;26.45;13.43;;;;;;;;;;5076408;28;20497;-80
2022/12/10 11:23:43;;;;;;;30.30;13.48;;;;;;;;;;5074922;28;20035;-82
2022/12/10 11:26:24;;;;;;;23.40;12.88;;;;;;;;;;5078824;28;20020;-81
2022/12/10 11:28:59;;;;;;;41.10;13.65;;;;;;;;;;5079072;28;20016;-81
2022/12/10 11:31:50;;;;;;;23.45;13.38;;;;;;;;;;5096895;28;20386;-81
2022/12/10 11:34:38;;;;;;;34.58;13.63;;;;;;;;;;5078743;28;20020;-81
2022/12/10 11:37:05;;;;;;;27.45;14.38;;;;;;;;;;5096997;28;20473;-80
2022/12/10 11:39:44;;;;;;;26.73;12.95;;;;;;;;;;5061809;28;20069;-79
2022/12/10 11:42:36;;;;;;;22.60;12.85;;;;;;;;;;5096495;28;20024;-80
2022/12/10 11:45:10;;;;;;;26.75;13.95;;;;;;;;;;5078066;28;20035;-80
2022/12/10 11:47:54;;;;;;;26.70;13.43;;;;;;;;;;5096497;28;20028;-79
2022/12/10 11:50:26;;;;;;;24.90;12.98;;;;;;;;;;5096716;28;20114;-80
2022/12/10 11:53:02;;;;;;;26.67;13.75;;;;;;;;;;5078333;28;20080;-80
2022/12/10 11:55:30;;;;;;;26.38;13.15;;;;;;;;;;5078053;28;20021;-80
2022/12/10 11:58:13;;;;;;;25.40;13.07;;;;;;;;;;5078099;28;20047;-79
2022/12/10 12:00:55;;;;;;;23.73;11.93;;;;;;;;;;5096274;28;20032;-82
2022/12/10 12:03:29;;;;;;;23.13;11.88;;;;;;;;;;5078507;28;20032;-82
2022/12/10 12:06:20;;;;;;;20.35;12.50;;;;;;;;;;5077991;28;20020;-82
2022/12/10 12:08:58;;;;;;;22.27;13.35;;;;;;;;;;5096163;28;20107;-83
2022/12/10 12:11:35;;;;;;;23.38;12.50;;;;;;;;;;5095930;28;20024;-79
2022/12/10 12:14:04;;;;;;;21.08;12.38;;;;;;;;;;5095891;28;20124;-80
2022/12/10 12:16:33;;;;;;;25.00;12.55;;;;;;;;;;5077813;28;20474;-82
2022/12/10 12:19:39;;;;;;;20.02;11.35;;;;;;;;;;5095729;28;20043;-81
2022/12/10 12:22:21;;;;;;;19.58;12.38;;;;;;;;;;5013932;28;20446;-80
2022/12/10 12:24:48;;;;;;;20.73;12.90;;;;;;;;;;4997577;28;20040;-80
2022/12/10 12:27:35;;;;;;;19.60;12.30;;;;;;;;;;4997933;28;20052;-79
2022/12/10 12:30:18;;;;;;;22.90;12.80;;;;;;;;;;4997691;28;20064;-80
2022/12/10 12:32:54;;;;;;;20.92;12.55;;;;;;;;;;4996803;28;20076;-79
2022/12/10 12:35:34;;;;;;;20.17;12.60;;;;;;;;;;5012259;28;20073;-79
2022/12/10 12:38:06;;;;;;;26.92;14.65;;;;;;;;;;5013406;28;20072;-81
2022/12/10 12:41:04;;;;;;;21.95;13.63;;;;;;;;;;5013428;28;20030;-81
2022/12/10 12:43:35;;;;;;;27.08;12.40;;;;;;;;;;5009822;28;20052;-81
2022/12/10 12:46:03;;;;;;;22.85;12.40;;;;;;;;;;5013394;28;20133;-81
2022/12/10 12:48:41;;;;;;;21.15;13.23;;;;;;;;;;5013971;28;20030;-78
2022/12/10 12:51:18;;;;;;;19.92;11.70;;;;;;;;;;4997467;28;20108;-81
2022/12/10 12:53:43;;;;;;;19.63;11.38;;;;;;;;;;5064369;28;20033;-80
2022/12/10 12:56:38;;;;;;;17.48;11.07;;;;;;;;;;5075464;28;20145;-80
2022/12/10 12:59:06;;;;;;;26.38;11.23;;;;;;;;;;5021531;28;20160;-80
2022/12/10 13:01:43;;;;;;;21.25;11.05;;;;;;;;;;5075501;28;20082;-80
2022/12/10 13:04:10;;;;;;;20.08;11.60;;;;;;;;;;5074721;28;20024;-80
2022/12/10 13:06:37;;;;;;;19.60;10.88;;;;;;;;;;5091772;28;20074;-81
2022/12/10 13:09:11;;;;;;;18.98;10.90;;;;;;;;;;5076545;28;20028;-80
2022/12/10 13:11:37;;;;;;;20.30;10.50;;;;;;;;;;5076270;28;20104;-80
2022/12/10 13:14:08;;;;;;;16.88;10.27;;;;;;;;;;5092661;28;20029;-80
2022/12/10 13:16:40;;;;;;;20.15;11.50;;;;;;;;;;5074224;28;20029;-80
2022/12/10 13:19:21;;;;;;;19.00;10.80;;;;;;;;;;5085728;28;20051;-82
2022/12/10 13:22:06;;;;;;;23.02;10.45;;;;;;;;;;5098561;28;20055;-79
2022/12/10 13:24:34;;;;;;;24.35;10.88;;;;;;;;;;5076567;28;20046;-78
2022/12/10 13:27:14;;;;;;;27.05;10.65;;;;;;;;;;5075654;28;20020;-81
2022/12/10 13:29:52;;;;;;;22.20;10.15;;;;;;;;;;5058806;28;20038;-80
2022/12/10 13:32:17;;;;;;;17.05;10.02;;;;;;;;;;5075181;28;20048;-81
2022/12/10 13:34:43;;;;;;;20.35;9.57;;;;;;;;;;5083842;28;20060;-81
2022/12/10 13:37:18;;;;;;;21.70;9.38;;;;;;;;;;5060317;28;20055;-82
2022/12/10 13:40:14;;;;;;;20.75;10.05;;;;;;;;;;5095361;28;20031;-84
2022/12/10 13:45:32;;;;;;;14.60;9.02;;;;;;;;;;5094788;28;20039;-82
2022/12/10 13:48:16;;;;;;;18.08;8.65;;;;;;;;;;5076655;28;20092;-81
2022/12/10 13:50:50;;;;;;;19.30;8.68;;;;;;;;;;5094668;28;20035;-80
2022/12/10 13:53:15;;;;;;;13.38;8.05;;;;;;;;;;5076909;28;20051;-78
2022/12/10 13:56:00;;;;;;;18.17;8.20;;;;;;;;;;5094376;28;20076;-82
2022/12/10 13:58:44;;;;;;;18.70;8.52;;;;;;;;;;5094438;28;20470;-80
2022/12/10 14:01:27;;;;;;;13.90;8.73;;;;;;;;;;5094553;28;20027;-80
2022/12/10 14:04:01;;;;;;;12.95;8.48;;;;;;;;;;5094397;28;20035;-82
2022/12/10 14:06:27;;;;;;;13.05;8.63;;;;;;;;;;5094626;28;20104;-79
2022/12/10 14:08:55;;;;;;;15.05;8.50;;;;;;;;;;5076370;28;20024;-80
2022/12/10 14:11:23;;;;;;;13.50;7.90;;;;;;;;;;5094203;28;20031;-81
2022/12/10 14:13:53;;;;;;;14.00;7.88;;;;;;;;;;5093308;28;20035;-79
2022/12/10 14:16:21;;;;;;;14.20;8.63;;;;;;;;;;5093950;28;20070;-78
2022/12/10 14:18:53;;;;;;;12.00;8.30;;;;;;;;;;5094320;28;20489;-80
2022/12/10 14:21:19;;;;;;;16.65;8.80;;;;;;;;;;5061767;28;20047;-78
2022/12/10 14:23:46;;;;;;;20.83;8.30;;;;;;;;;;5095605;28;20085;-79
2022/12/10 14:26:15;;;;;;;15.18;8.00;;;;;;;;;;5095802;28;20034;-78
2022/12/10 14:28:59;;;;;;;15.05;8.68;;;;;;;;;;5055959;28;20024;-81
2022/12/10 14:31:30;;;;;;;12.38;7.93;;;;;;;;;;5093459;28;20028;-80
2022/12/10 14:34:00;;;;;;;13.68;8.38;;;;;;;;;;5093823;28;20101;-82
2022/12/10 14:36:31;;;;;;;12.73;8.02;;;;;;;;;;5100251;28;20031;-81
2022/12/10 14:38:57;;;;;;;13.48;8.07;;;;;;;;;;5098671;28;20390;-80
2022/12/10 14:41:23;;;;;;;12.70;8.13;;;;;;;;;;5079379;28;20028;-82
2022/12/10 14:43:49;;;;;;;13.27;7.97;;;;;;;;;;5083992;28;20040;-83
2022/12/10 14:46:21;;;;;;;12.40;8.20;;;;;;;;;;5057572;28;20028;-83